createdAt,value
2017-08-16T00:01:25.936Z,66.60
2017-08-16T00:03:53.414Z,66.60
2017-08-16T00:06:21.136Z,67.30
2017-08-16T00:08:48.592Z,66.50
2017-08-16T00:11:15.765Z,66.50
2017-08-16T00:13:42.956Z,66.50
2017-08-16T00:16:10.129Z,67.20
2017-08-16T00:18:38.338Z,66.50
2017-08-16T00:21:06.332Z,66.30
2017-08-16T00:23:33.698Z,66.60
2017-08-16T00:26:00.873Z,66.60
2017-08-16T00:28:28.247Z,66.60
2017-08-16T00:30:55.428Z,66.60
2017-08-16T00:33:22.863Z,66.60
2017-08-16T00:35:50.385Z,66.60
2017-08-16T00:38:17.727Z,66.60
2017-08-16T00:40:45.688Z,66.60
2017-08-16T00:43:12.997Z,66.60
2017-08-16T00:45:40.183Z,66.80
2017-08-16T00:48:07.573Z,66.50
2017-08-16T00:50:35.514Z,64.90
2017-08-16T00:53:02.704Z,64.90
2017-08-16T00:55:29.872Z,64.30
2017-08-16T00:57:57.119Z,63.70
2017-08-16T01:00:24.570Z,63.30
2017-08-16T01:02:52.044Z,64.20
2017-08-16T01:05:19.494Z,64.50
2017-08-16T01:07:46.948Z,64.70
2017-08-16T01:10:14.404Z,64.80
2017-08-16T01:12:41.926Z,64.90
2017-08-16T01:15:09.098Z,65.10
2017-08-16T01:17:36.280Z,65.20
2017-08-16T01:20:03.467Z,65.30
2017-08-16T01:22:30.659Z,65.40
2017-08-16T01:24:58.089Z,65.50
2017-08-16T01:27:25.257Z,65.60
2017-08-16T01:29:52.426Z,65.70
2017-08-16T01:32:19.680Z,65.70
2017-08-16T01:34:46.849Z,65.70
2017-08-16T01:37:14.016Z,65.80
2017-08-16T01:39:41.432Z,65.90
2017-08-16T01:42:08.963Z,65.90
2017-08-16T01:44:36.457Z,65.90
2017-08-16T01:47:03.809Z,65.90
2017-08-16T01:49:31.263Z,66.00
2017-08-16T01:51:58.784Z,66.00
2017-08-16T01:54:26.298Z,66.10
2017-08-16T01:56:53.949Z,66.10
2017-08-16T01:59:21.122Z,66.10
2017-08-16T02:01:48.293Z,66.10
2017-08-16T02:04:15.470Z,66.20
2017-08-16T02:06:42.657Z,66.20
2017-08-16T02:09:09.829Z,66.20
2017-08-16T02:11:37.147Z,66.20
2017-08-16T02:14:04.665Z,66.30
2017-08-16T02:16:32.064Z,66.30
2017-08-16T02:18:59.700Z,66.30
2017-08-16T02:21:27.320Z,66.30
2017-08-16T02:23:54.525Z,66.30
2017-08-16T02:26:21.692Z,66.30
2017-08-16T02:28:48.949Z,66.30
2017-08-16T02:31:16.265Z,66.40
2017-08-16T02:33:43.658Z,66.40
2017-08-16T02:36:11.108Z,66.40
2017-08-16T02:38:38.285Z,66.40
2017-08-16T02:41:05.454Z,66.40
2017-08-16T02:43:32.621Z,66.50
2017-08-16T02:45:59.789Z,66.50
2017-08-16T02:48:27.366Z,66.50
2017-08-16T02:50:54.938Z,66.50
2017-08-16T02:53:22.373Z,66.50
2017-08-16T02:55:49.968Z,66.50
2017-08-16T02:58:17.484Z,66.50
2017-08-16T03:00:44.668Z,66.50
2017-08-16T03:03:11.944Z,66.50
2017-08-16T03:05:39.188Z,66.50
2017-08-16T03:08:06.517Z,66.60
2017-08-16T03:10:34.173Z,66.50
2017-08-16T03:13:01.433Z,66.50
2017-08-16T03:15:28.614Z,66.60
2017-08-16T03:17:56.126Z,66.60
2017-08-16T03:20:23.619Z,66.60
2017-08-16T03:22:50.807Z,66.50
2017-08-16T03:25:17.981Z,66.50
2017-08-16T03:27:45.446Z,66.50
2017-08-16T03:30:12.622Z,66.50
2017-08-16T03:32:39.793Z,66.50
2017-08-16T03:35:07.075Z,66.50
2017-08-16T03:37:34.468Z,66.50
2017-08-16T03:40:01.925Z,66.50
2017-08-16T03:42:29.112Z,66.50
2017-08-16T03:44:56.295Z,66.50
2017-08-16T03:47:23.680Z,66.50
2017-08-16T03:49:51.330Z,66.50
2017-08-16T03:52:18.502Z,66.50
2017-08-16T03:54:45.674Z,66.60
2017-08-16T03:57:12.904Z,66.60
2017-08-16T03:59:40.101Z,66.60
2017-08-16T04:02:07.504Z,66.60
2017-08-16T04:04:34.961Z,66.60
2017-08-16T04:07:02.147Z,66.60
2017-08-16T04:09:29.429Z,66.80
2017-08-16T04:11:57.032Z,66.50
2017-08-16T04:14:24.216Z,65.70
2017-08-16T04:16:51.390Z,65.00
2017-08-16T04:19:18.575Z,64.30
2017-08-16T04:21:45.936Z,63.90
2017-08-16T04:24:13.119Z,63.50
2017-08-16T04:26:40.541Z,63.80
2017-08-16T04:29:07.726Z,64.20
2017-08-16T04:31:35.231Z,65.10
2017-08-16T04:34:02.605Z,64.60
2017-08-16T04:36:29.782Z,64.60
2017-08-16T04:38:57.212Z,64.80
2017-08-16T04:41:24.379Z,65.10
2017-08-16T04:43:51.815Z,65.10
2017-08-16T04:46:19.282Z,65.20
2017-08-16T04:48:46.929Z,65.30
2017-08-16T04:51:14.106Z,65.40
2017-08-16T04:53:41.347Z,65.50
2017-08-16T04:56:08.535Z,65.60
2017-08-16T04:58:35.706Z,65.60
2017-08-16T05:01:03.104Z,66.30
2017-08-16T05:03:30.293Z,65.70
2017-08-16T05:05:57.475Z,65.70
2017-08-16T05:08:24.650Z,65.80
2017-08-16T05:10:51.821Z,65.80
2017-08-16T05:13:19.003Z,65.90
2017-08-16T05:15:46.370Z,65.90
2017-08-16T05:18:13.561Z,65.90
2017-08-16T05:20:40.729Z,65.90
2017-08-16T05:23:08.251Z,66.00
2017-08-16T05:25:35.832Z,66.00
2017-08-16T05:28:03.001Z,66.00
2017-08-16T05:30:30.174Z,66.00
2017-08-16T05:32:57.345Z,66.10
2017-08-16T05:35:24.705Z,66.10
2017-08-16T05:37:52.657Z,66.90
2017-08-16T05:40:19.826Z,66.80
2017-08-16T05:42:46.997Z,66.70
2017-08-16T05:45:14.173Z,66.60
2017-08-16T05:47:41.427Z,66.80
2017-08-16T05:50:08.621Z,66.80
2017-08-16T05:52:35.789Z,66.70
2017-08-16T05:55:03.161Z,66.80
2017-08-16T05:57:30.617Z,66.60
2017-08-16T05:59:57.789Z,66.60
2017-08-16T06:02:25.224Z,66.60
2017-08-16T06:04:52.429Z,66.70
2017-08-16T06:07:20.018Z,66.60
2017-08-16T06:09:47.203Z,66.70
2017-08-16T06:12:14.387Z,66.60
2017-08-16T06:14:41.595Z,66.60
2017-08-16T06:17:08.779Z,66.50
2017-08-16T06:19:35.998Z,66.50
2017-08-16T06:22:03.213Z,66.60
2017-08-16T06:24:30.384Z,66.60
2017-08-16T06:26:57.809Z,66.60
2017-08-16T06:29:25.019Z,66.60
2017-08-16T06:31:52.420Z,66.60
2017-08-16T06:34:19.712Z,66.60
2017-08-16T06:36:47.167Z,66.60
2017-08-16T06:39:14.822Z,66.60
2017-08-16T06:41:42.012Z,66.50
2017-08-16T06:44:09.232Z,66.50
2017-08-16T06:46:36.409Z,66.50
2017-08-16T06:49:03.595Z,66.50
2017-08-16T06:51:31.110Z,66.50
2017-08-16T06:53:58.626Z,66.50
2017-08-16T06:56:25.811Z,66.50
2017-08-16T06:58:53.069Z,66.50
2017-08-16T07:01:20.512Z,66.50
2017-08-16T07:03:47.975Z,66.50
2017-08-16T07:06:15.146Z,66.50
2017-08-16T07:08:42.585Z,66.50
2017-08-16T07:11:09.827Z,66.50
2017-08-16T07:13:37.184Z,66.50
2017-08-16T07:16:04.357Z,66.50
2017-08-16T07:18:31.529Z,66.50
2017-08-16T07:20:58.721Z,66.50
2017-08-16T07:23:25.894Z,66.80
2017-08-16T07:25:53.357Z,66.40
2017-08-16T07:28:20.699Z,65.70
2017-08-16T07:30:47.869Z,65.20
2017-08-16T07:33:15.304Z,64.50
2017-08-16T07:35:42.877Z,63.90
2017-08-16T07:38:10.230Z,63.60
2017-08-16T07:40:37.415Z,63.20
2017-08-16T07:43:04.589Z,63.90
2017-08-16T07:45:32.291Z,64.90
2017-08-16T07:47:59.480Z,64.40
2017-08-16T07:50:26.896Z,64.40
2017-08-16T07:52:54.073Z,64.50
2017-08-16T07:55:21.568Z,64.70
2017-08-16T07:57:48.752Z,64.80
2017-08-16T08:00:15.939Z,64.90
2017-08-16T08:02:43.123Z,65.00
2017-08-16T08:05:10.293Z,65.10
2017-08-16T08:07:37.466Z,65.20
2017-08-16T08:10:04.874Z,65.10
2017-08-16T08:12:32.477Z,65.20
2017-08-16T08:14:59.654Z,65.30
2017-08-16T08:17:26.822Z,65.30
2017-08-16T08:19:54.012Z,65.40
2017-08-16T08:22:21.438Z,65.60
2017-08-16T08:24:48.955Z,66.20
2017-08-16T08:27:16.148Z,65.60
2017-08-16T08:29:43.319Z,65.60
2017-08-16T08:32:10.602Z,65.60
2017-08-16T08:34:38.050Z,65.60
2017-08-16T08:37:05.263Z,65.70
2017-08-16T08:39:32.452Z,65.70
2017-08-16T08:41:59.630Z,65.80
2017-08-16T08:44:26.872Z,65.80
2017-08-16T08:46:54.055Z,65.90
2017-08-16T08:49:21.261Z,65.80
2017-08-16T08:51:48.572Z,65.80
2017-08-16T08:54:15.746Z,65.80
2017-08-16T08:56:43.013Z,65.90
2017-08-16T08:59:10.469Z,65.90
2017-08-16T09:01:37.641Z,65.90
2017-08-16T09:04:04.819Z,65.90
2017-08-16T09:06:32.540Z,65.90
2017-08-16T09:08:59.993Z,65.90
2017-08-16T09:11:27.245Z,66.00
2017-08-16T09:13:54.783Z,66.00
2017-08-16T09:16:21.972Z,66.00
2017-08-16T09:18:49.211Z,66.00
2017-08-16T09:21:16.669Z,66.00
2017-08-16T09:23:43.851Z,66.10
2017-08-16T09:26:11.025Z,66.10
2017-08-16T09:28:38.194Z,66.30
2017-08-16T09:31:05.706Z,66.30
2017-08-16T09:33:33.225Z,66.30
2017-08-16T09:36:00.491Z,66.30
2017-08-16T09:38:27.947Z,66.30
2017-08-16T09:40:55.143Z,66.40
2017-08-16T09:43:22.549Z,66.40
2017-08-16T09:45:49.811Z,66.30
2017-08-16T09:48:16.999Z,66.30
2017-08-16T09:50:44.522Z,66.30
2017-08-16T09:53:11.694Z,66.30
2017-08-16T09:55:38.921Z,66.30
2017-08-16T09:58:06.093Z,66.30
2017-08-16T10:00:33.276Z,66.30
2017-08-16T10:03:00.673Z,66.30
2017-08-16T10:05:27.860Z,66.30
2017-08-16T10:07:55.645Z,66.30
2017-08-16T10:10:23.041Z,66.30
2017-08-16T10:12:50.281Z,66.30
2017-08-16T10:15:17.648Z,66.30
2017-08-16T10:17:45.109Z,66.30
2017-08-16T10:20:12.278Z,66.30
2017-08-16T10:22:39.777Z,66.30
2017-08-16T10:25:06.949Z,66.30
2017-08-16T10:27:34.394Z,66.30
2017-08-16T10:30:01.854Z,66.30
2017-08-16T10:32:29.347Z,66.30
2017-08-16T10:34:56.815Z,66.30
2017-08-16T10:37:24.055Z,66.30
2017-08-16T10:39:51.365Z,66.30
2017-08-16T10:42:18.756Z,66.30
2017-08-16T10:44:46.408Z,67.00
2017-08-16T10:47:13.679Z,66.30
2017-08-16T10:49:40.863Z,66.40
2017-08-16T10:52:08.391Z,65.70
2017-08-16T10:54:35.746Z,64.80
2017-08-16T10:57:03.296Z,64.00
2017-08-16T10:59:30.652Z,63.80
2017-08-16T11:01:58.309Z,63.40
2017-08-16T11:04:25.881Z,64.20
2017-08-16T11:06:53.543Z,64.30
2017-08-16T11:09:20.737Z,64.40
2017-08-16T11:11:47.941Z,64.60
2017-08-16T11:14:15.392Z,64.70
2017-08-16T11:16:42.575Z,64.80
2017-08-16T11:19:10.212Z,64.90
2017-08-16T11:21:37.773Z,65.00
2017-08-16T11:24:04.944Z,65.10
2017-08-16T11:26:32.113Z,65.20
2017-08-16T11:28:59.299Z,65.20
2017-08-16T11:31:26.743Z,65.20
2017-08-16T11:33:53.932Z,65.40
2017-08-16T11:36:21.480Z,65.40
2017-08-16T11:38:48.663Z,65.40
2017-08-16T11:41:15.884Z,65.40
2017-08-16T11:43:43.344Z,65.50
2017-08-16T11:46:10.851Z,65.50
2017-08-16T11:48:38.025Z,65.60
2017-08-16T11:51:05.414Z,65.60
2017-08-16T11:53:32.864Z,65.30
2017-08-16T11:56:00.322Z,65.70
2017-08-16T11:58:27.494Z,65.70
2017-08-16T12:00:54.932Z,65.80
2017-08-16T12:03:22.102Z,65.70
2017-08-16T12:05:49.537Z,65.70
2017-08-16T12:08:16.713Z,65.80
2017-08-16T12:10:44.203Z,65.80
2017-08-16T12:13:11.382Z,65.80
2017-08-16T12:15:38.753Z,65.80
2017-08-16T12:18:06.406Z,65.90
2017-08-16T12:20:33.649Z,65.90
2017-08-16T12:23:00.822Z,65.90
2017-08-16T12:25:27.998Z,65.90
2017-08-16T12:27:55.170Z,65.90
2017-08-16T12:30:22.342Z,65.90
2017-08-16T12:32:49.912Z,65.90
2017-08-16T12:35:17.090Z,65.90
2017-08-16T12:37:44.262Z,65.90
2017-08-16T12:40:11.480Z,66.00
2017-08-16T12:42:38.649Z,65.90
2017-08-16T12:45:06.093Z,66.00
2017-08-16T12:47:33.568Z,66.70
2017-08-16T12:50:01.001Z,66.00
2017-08-16T12:52:28.649Z,66.00
2017-08-16T12:54:55.922Z,66.00
2017-08-16T12:57:23.107Z,66.00
2017-08-16T12:59:50.273Z,66.20
2017-08-16T13:02:17.874Z,66.00
2017-08-16T13:04:45.071Z,66.10
2017-08-16T13:07:12.241Z,66.10
2017-08-16T13:09:40.430Z,66.80
2017-08-16T13:12:07.893Z,66.80
2017-08-16T13:14:35.266Z,66.10
2017-08-16T13:17:02.452Z,66.80
2017-08-16T13:19:29.877Z,66.10
2017-08-16T13:21:57.052Z,66.10
2017-08-16T13:24:24.581Z,66.10
2017-08-16T13:26:52.151Z,66.10
2017-08-16T13:29:19.566Z,66.10
2017-08-16T13:31:47.168Z,66.10
2017-08-16T13:34:14.352Z,66.10
2017-08-16T13:36:41.845Z,66.10
2017-08-16T13:39:09.093Z,66.10
2017-08-16T13:41:36.382Z,66.10
2017-08-16T13:44:03.571Z,66.10
2017-08-16T13:46:30.746Z,66.10
2017-08-16T13:48:58.134Z,66.10
2017-08-16T13:51:25.589Z,66.10
2017-08-16T13:53:53.116Z,66.10
2017-08-16T13:56:20.612Z,66.10
2017-08-16T13:58:47.972Z,66.10
2017-08-16T14:01:15.149Z,66.10
2017-08-16T14:03:42.686Z,66.10
2017-08-16T14:06:09.862Z,66.10
2017-08-16T14:08:37.224Z,66.10
2017-08-16T14:11:04.740Z,66.20
2017-08-16T14:13:31.927Z,65.90
2017-08-16T14:15:59.426Z,66.20
2017-08-16T14:18:26.703Z,66.20
2017-08-16T14:20:54.213Z,66.20
2017-08-16T14:23:21.387Z,66.40
2017-08-16T14:25:48.764Z,66.10
2017-08-16T14:28:15.941Z,65.40
2017-08-16T14:30:43.368Z,64.60
2017-08-16T14:33:10.549Z,64.00
2017-08-16T14:35:37.717Z,63.50
2017-08-16T14:38:05.134Z,63.30
2017-08-16T14:40:32.591Z,64.20
2017-08-16T14:42:59.776Z,64.30
2017-08-16T14:45:27.188Z,64.30
2017-08-16T14:47:54.378Z,64.50
2017-08-16T14:50:21.802Z,64.60
2017-08-16T14:52:48.991Z,64.70
2017-08-16T14:55:16.410Z,64.70
2017-08-16T14:57:43.582Z,64.90
2017-08-16T15:00:11.013Z,65.00
2017-08-16T15:02:38.476Z,65.10
2017-08-16T15:05:05.666Z,65.10
2017-08-16T15:07:33.295Z,65.20
2017-08-16T15:10:00.847Z,65.20
2017-08-16T15:12:28.301Z,65.30
2017-08-16T15:14:55.875Z,65.20
2017-08-16T15:17:23.053Z,65.40
2017-08-16T15:19:50.250Z,65.40
2017-08-16T15:22:17.551Z,65.50
2017-08-16T15:24:44.721Z,65.40
2017-08-16T15:27:11.923Z,65.50
2017-08-16T15:29:39.330Z,65.60
2017-08-16T15:32:06.516Z,65.60
2017-08-16T15:34:34.091Z,65.60
2017-08-16T15:37:01.261Z,65.30
2017-08-16T15:39:28.433Z,65.70
2017-08-16T15:41:55.619Z,65.60
2017-08-16T15:44:23.092Z,65.70
2017-08-16T15:46:50.265Z,65.70
2017-08-16T15:49:17.898Z,65.70
2017-08-16T15:51:45.151Z,65.70
2017-08-16T15:54:12.683Z,65.70
2017-08-16T15:56:39.881Z,65.80
2017-08-16T15:59:07.224Z,65.80
2017-08-16T16:01:34.402Z,65.80
2017-08-16T16:04:01.583Z,65.80
2017-08-16T16:06:28.987Z,65.80
2017-08-16T16:08:56.487Z,65.90
2017-08-16T16:11:23.674Z,65.90
2017-08-16T16:13:51.222Z,65.90
2017-08-16T16:16:18.407Z,65.90
2017-08-16T16:18:45.835Z,65.90
2017-08-16T16:21:13.324Z,65.90
2017-08-16T16:23:40.562Z,65.90
2017-08-16T16:26:07.744Z,65.90
2017-08-16T16:28:34.924Z,65.90
2017-08-16T16:31:02.387Z,66.00
2017-08-16T16:33:29.562Z,66.00
2017-08-16T16:35:57.548Z,66.00
2017-08-16T16:38:24.998Z,66.00
2017-08-16T16:40:52.462Z,66.00
2017-08-16T16:43:19.916Z,66.00
2017-08-16T16:45:47.104Z,66.00
2017-08-16T16:48:14.643Z,66.00
2017-08-16T16:50:41.818Z,66.00
2017-08-16T16:53:09.126Z,66.00
2017-08-16T16:55:36.392Z,66.00
2017-08-16T16:58:03.815Z,66.10
2017-08-16T17:00:31.658Z,66.00
2017-08-16T17:02:59.151Z,66.00
2017-08-16T17:05:26.643Z,66.10
2017-08-16T17:07:54.411Z,66.10
2017-08-16T17:10:22.803Z,66.10
2017-08-16T17:12:50.634Z,66.10
2017-08-16T17:15:18.088Z,66.10
2017-08-16T17:17:45.607Z,65.80
2017-08-16T17:20:12.804Z,66.20
2017-08-16T17:22:40.177Z,66.40
2017-08-16T17:25:08.033Z,66.50
2017-08-16T17:27:35.477Z,66.40
2017-08-16T17:30:04.365Z,66.40
2017-08-16T17:32:31.547Z,66.40
2017-08-16T17:34:58.725Z,66.40
2017-08-16T17:37:26.121Z,66.40
2017-08-16T17:39:53.761Z,66.20
2017-08-16T17:42:21.430Z,67.30
2017-08-16T17:44:48.799Z,67.20
2017-08-16T17:47:16.442Z,67.20
2017-08-16T17:49:43.786Z,67.30
2017-08-16T17:52:13.472Z,67.80
2017-08-16T17:54:41.961Z,67.30
2017-08-16T17:57:09.713Z,64.90
2017-08-16T17:59:37.853Z,65.90
2017-08-16T18:02:05.062Z,64.90
2017-08-16T18:04:32.641Z,64.30
2017-08-16T18:06:59.832Z,64.00
2017-08-16T18:09:27.374Z,63.50
2017-08-16T18:11:54.552Z,63.10
2017-08-16T18:14:21.973Z,63.10
2017-08-16T18:16:49.145Z,63.90
2017-08-16T18:19:17.580Z,64.00
2017-08-16T18:21:44.964Z,64.10
2017-08-16T18:24:12.633Z,64.20
2017-08-16T18:26:40.191Z,64.40
2017-08-16T18:29:07.518Z,64.30
2017-08-16T18:31:35.108Z,64.60
2017-08-16T18:34:02.297Z,64.60
2017-08-16T18:36:29.712Z,64.80
2017-08-16T18:38:57.239Z,64.80
2017-08-16T18:41:24.497Z,64.90
2017-08-16T18:43:51.688Z,64.90
2017-08-16T18:46:19.642Z,65.60
2017-08-16T18:48:47.609Z,65.10
2017-08-16T18:51:15.177Z,65.10
2017-08-16T18:53:42.525Z,65.10
2017-08-16T18:56:09.788Z,65.20
2017-08-16T18:58:37.302Z,65.30
2017-08-16T19:01:04.798Z,65.30
2017-08-16T19:03:32.976Z,65.40
2017-08-16T19:06:00.413Z,65.40
2017-08-16T19:08:27.590Z,65.40
2017-08-16T19:10:55.025Z,65.40
2017-08-16T19:13:23.465Z,65.40
2017-08-16T19:15:50.725Z,65.50
2017-08-16T19:18:18.520Z,65.50
2017-08-16T19:20:46.430Z,65.60
2017-08-16T19:23:13.956Z,65.60
2017-08-16T19:25:41.573Z,65.60
2017-08-16T19:28:08.781Z,65.60
2017-08-16T19:30:36.545Z,65.60
2017-08-16T19:33:03.717Z,65.60
2017-08-16T19:38:00.361Z,65.60
2017-08-16T19:40:27.752Z,65.70
2017-08-16T19:42:54.938Z,65.70
2017-08-16T19:45:22.199Z,65.70
2017-08-16T19:47:49.386Z,65.80
2017-08-16T19:50:17.123Z,65.80
2017-08-16T19:52:44.766Z,65.80
2017-08-16T19:55:11.973Z,65.80
2017-08-16T19:57:39.179Z,65.80
2017-08-16T20:00:06.627Z,65.80
2017-08-16T20:02:34.088Z,66.00
2017-08-16T20:05:01.276Z,66.00
2017-08-16T20:07:28.693Z,66.00
2017-08-16T20:09:55.884Z,66.00
2017-08-16T20:12:23.611Z,66.50
2017-08-16T20:14:50.800Z,66.00
2017-08-16T20:17:18.268Z,66.00
2017-08-16T20:19:45.445Z,65.90
2017-08-16T20:22:12.875Z,65.90
2017-08-16T20:24:40.053Z,65.90
2017-08-16T20:27:10.528Z,66.00
2017-08-16T20:29:38.258Z,65.90
2017-08-16T20:32:06.683Z,65.90
2017-08-16T20:34:34.100Z,65.90
2017-08-16T20:37:02.860Z,65.80
2017-08-16T20:39:30.227Z,65.80
2017-08-16T20:41:57.413Z,65.80
2017-08-16T20:44:27.662Z,65.80
2017-08-16T20:46:56.905Z,65.90
2017-08-16T20:49:24.376Z,65.90
2017-08-16T20:51:52.013Z,65.90
2017-08-16T20:54:20.406Z,65.90
2017-08-16T20:56:48.261Z,65.90
2017-08-16T20:59:16.227Z,66.40
2017-08-16T21:01:43.712Z,65.90
2017-08-16T21:04:10.877Z,66.00
2017-08-16T21:06:38.303Z,66.00
2017-08-16T21:09:05.738Z,66.00
2017-08-16T21:11:33.022Z,66.00
2017-08-16T21:14:01.326Z,66.00
2017-08-16T21:16:30.744Z,66.00
2017-08-16T21:18:57.942Z,66.00
2017-08-16T21:21:25.135Z,66.00
2017-08-16T21:23:52.310Z,65.40
2017-08-16T21:26:19.612Z,64.50
2017-08-16T21:28:47.386Z,63.70
2017-08-16T21:31:14.561Z,63.20
2017-08-16T21:33:42.298Z,62.90
2017-08-16T21:36:09.932Z,62.50
2017-08-16T21:38:37.109Z,63.30
2017-08-16T21:41:04.543Z,63.50
2017-08-16T21:43:32.434Z,63.70
2017-08-16T21:45:59.873Z,63.80
2017-08-16T21:48:27.351Z,63.90
2017-08-16T21:50:54.543Z,64.00
2017-08-16T21:53:21.727Z,64.10
2017-08-16T21:55:49.413Z,64.20
2017-08-16T21:58:16.866Z,64.40
2017-08-16T22:00:44.033Z,64.40
2017-08-16T22:03:11.469Z,64.60
2017-08-16T22:05:38.642Z,64.70
2017-08-16T22:08:06.137Z,64.70
2017-08-16T22:10:33.333Z,64.80
2017-08-16T22:13:00.996Z,64.90
2017-08-16T22:15:28.474Z,65.40
2017-08-16T22:17:56.108Z,65.00
2017-08-16T22:20:23.678Z,65.00
2017-08-16T22:22:50.853Z,65.00
2017-08-16T22:25:18.034Z,65.10
2017-08-16T22:27:45.428Z,65.10
2017-08-16T22:30:13.070Z,65.20
2017-08-16T22:32:40.245Z,65.20
2017-08-16T22:35:07.493Z,65.20
2017-08-16T22:37:34.960Z,65.30
2017-08-16T22:40:02.587Z,65.30
2017-08-16T22:42:29.765Z,65.90
2017-08-16T22:44:56.956Z,65.40
2017-08-16T22:47:24.166Z,65.40
2017-08-16T22:49:51.686Z,65.40
2017-08-16T22:52:18.926Z,65.50
2017-08-16T22:54:46.307Z,65.40
2017-08-16T22:57:13.685Z,65.50
2017-08-16T22:59:41.141Z,65.50
2017-08-16T23:02:08.313Z,65.60
2017-08-16T23:04:35.495Z,65.60
2017-08-16T23:07:02.712Z,66.10
2017-08-16T23:09:29.881Z,65.60
2017-08-16T23:11:57.395Z,65.60
2017-08-16T23:14:24.971Z,65.60
2017-08-16T23:16:52.428Z,65.70
2017-08-16T23:19:19.881Z,65.70
2017-08-16T23:21:47.515Z,65.70
2017-08-16T23:24:15.107Z,65.70
2017-08-16T23:26:42.626Z,66.20
2017-08-16T23:29:10.018Z,65.70
2017-08-16T23:31:37.387Z,65.80
2017-08-16T23:34:04.572Z,65.80
2017-08-16T23:36:31.772Z,65.80
2017-08-16T23:38:58.946Z,65.80
2017-08-16T23:41:26.457Z,65.80
2017-08-16T23:43:53.846Z,65.80
2017-08-16T23:46:21.491Z,65.90
2017-08-16T23:48:48.679Z,65.90
2017-08-16T23:51:15.850Z,65.90
2017-08-16T23:53:43.494Z,65.90
2017-08-16T23:56:10.819Z,65.90
2017-08-16T23:58:38.009Z,65.90
